sensor_id;sensor_type;location;lat;lon;timestamp;pressure;altitude;pressure_sealevel;temperature;humidity
8101;BME280;4093;53.470;9.832;2023-02-12T00:01:07;103382.31;;;10.73;97.15
8101;BME280;4093;53.470;9.832;2023-02-12T00:03:35;103370.19;;;10.71;96.27
8101;BME280;4093;53.470;9.832;2023-02-12T00:06:05;103395.16;;;11.05;96.24
8101;BME280;4093;53.470;9.832;2023-02-12T00:08:33;103397.78;;;10.70;96.16
8101;BME280;4093;53.470;9.832;2023-02-12T00:11:06;103377.06;;;10.69;96.72
8101;BME280;4093;53.470;9.832;2023-02-12T00:13:34;103419.25;;;11.01;94.88
8101;BME280;4093;53.470;9.832;2023-02-12T00:16:06;103417.53;;;11.03;95.30
8101;BME280;4093;53.470;9.832;2023-02-12T00:18:35;103417.16;;;10.53;96.77
8101;BME280;4093;53.470;9.832;2023-02-12T00:21:05;103410.53;;;10.31;98.86
8101;BME280;4093;53.470;9.832;2023-02-12T00:23:34;103422.75;;;10.36;98.09
8101;BME280;4093;53.470;9.832;2023-02-12T00:26:04;103427.22;;;10.42;97.26
8101;BME280;4093;53.470;9.832;2023-02-12T00:28:32;103403.19;;;10.46;96.37
8101;BME280;4093;53.470;9.832;2023-02-12T00:31:04;103430.84;;;10.82;96.19
8101;BME280;4093;53.470;9.832;2023-02-12T00:33:32;103428.63;;;10.31;97.70
8101;BME280;4093;53.470;9.832;2023-02-12T00:36:00;103429.13;;;10.49;98.14
8101;BME280;4093;53.470;9.832;2023-02-12T00:38:29;103438.78;;;10.55;97.10
8101;BME280;4093;53.470;9.832;2023-02-12T00:40:57;103433.03;;;10.33;97.64
8101;BME280;4093;53.470;9.832;2023-02-12T00:43:25;103439.47;;;10.49;97.65
8101;BME280;4093;53.470;9.832;2023-02-12T00:45:53;103440.31;;;10.47;97.02
8101;BME280;4093;53.470;9.832;2023-02-12T00:48:21;103440.91;;;10.71;96.08
8101;BME280;4093;53.470;9.832;2023-02-12T00:50:49;103434.78;;;10.34;97.64
8101;BME280;4093;53.470;9.832;2023-02-12T00:53:17;103446.44;;;10.50;97.14
8101;BME280;4093;53.470;9.832;2023-02-12T00:55:47;103446.25;;;10.77;96.29
8101;BME280;4093;53.470;9.832;2023-02-12T00:58:15;103451.69;;;10.53;95.39
8101;BME280;4093;53.470;9.832;2023-02-12T01:00:44;103443.41;;;10.67;95.25
8101;BME280;4093;53.470;9.832;2023-02-12T01:03:12;103446.00;;;10.68;95.60
8101;BME280;4093;53.470;9.832;2023-02-12T01:05:40;103445.44;;;10.78;95.53
8101;BME280;4093;53.470;9.832;2023-02-12T01:08:10;103450.03;;;10.25;97.44
8101;BME280;4093;53.470;9.832;2023-02-12T01:10:38;103442.22;;;10.54;95.37
8101;BME280;4093;53.470;9.832;2023-02-12T01:13:10;103441.16;;;10.80;94.93
8101;BME280;4093;53.470;9.832;2023-02-12T01:15:38;103417.06;;;10.18;96.55
8101;BME280;4093;53.470;9.832;2023-02-12T01:18:06;103441.78;;;10.38;96.68
8101;BME280;4093;53.470;9.832;2023-02-12T01:20:35;103453.69;;;10.65;96.06
8101;BME280;4093;53.470;9.832;2023-02-12T01:23:02;103449.03;;;10.52;95.94
8101;BME280;4093;53.470;9.832;2023-02-12T01:25:32;103436.06;;;9.90;97.62
8101;BME280;4093;53.470;9.832;2023-02-12T01:28:00;103439.16;;;10.07;97.63
8101;BME280;4093;53.470;9.832;2023-02-12T01:30:29;103445.66;;;10.24;97.59
8101;BME280;4093;53.470;9.832;2023-02-12T01:32:57;103446.00;;;10.35;96.37
8101;BME280;4093;53.470;9.832;2023-02-12T01:35:26;103449.25;;;10.59;95.99
8101;BME280;4093;53.470;9.832;2023-02-12T01:37:53;103452.81;;;10.63;94.97
8101;BME280;4093;53.470;9.832;2023-02-12T01:40:23;103452.75;;;10.61;95.62
8101;BME280;4093;53.470;9.832;2023-02-12T01:42:51;103450.06;;;10.58;95.21
8101;BME280;4093;53.470;9.832;2023-02-12T01:45:51;103454.06;;;10.46;95.38
8101;BME280;4093;53.470;9.832;2023-02-12T01:48:22;103452.16;;;10.40;95.99
8101;BME280;4093;53.470;9.832;2023-02-12T01:50:53;103451.34;;;10.41;95.28
8101;BME280;4093;53.470;9.832;2023-02-12T01:53:24;103454.69;;;10.08;96.23
8101;BME280;4093;53.470;9.832;2023-02-12T01:55:57;103453.72;;;10.03;97.22
8101;BME280;4093;53.470;9.832;2023-02-12T01:58:29;103457.47;;;10.45;96.67
8101;BME280;4093;53.470;9.832;2023-02-12T02:01:02;103456.84;;;10.53;95.51
8101;BME280;4093;53.470;9.832;2023-02-12T02:03:31;103456.94;;;10.56;94.63
8101;BME280;4093;53.470;9.832;2023-02-12T02:06:02;103458.53;;;10.84;94.61
8101;BME280;4093;53.470;9.832;2023-02-12T02:08:32;103450.00;;;10.88;93.91
8101;BME280;4093;53.470;9.832;2023-02-12T02:11:00;103451.34;;;10.74;94.35
8101;BME280;4093;53.470;9.832;2023-02-12T02:13:48;103449.78;;;10.79;93.66
8101;BME280;4093;53.470;9.832;2023-02-12T02:16:36;103421.84;;;10.66;93.65
8101;BME280;4093;53.470;9.832;2023-02-12T02:19:11;103448.44;;;10.62;94.54
8101;BME280;4093;53.470;9.832;2023-02-12T02:22:13;103450.88;;;10.56;94.47
8101;BME280;4093;53.470;9.832;2023-02-12T02:25:05;103430.47;;;10.67;93.86
8101;BME280;4093;53.470;9.832;2023-02-12T02:27:41;103451.81;;;10.93;93.46
8101;BME280;4093;53.470;9.832;2023-02-12T02:30:24;103443.41;;;11.01;92.80
8101;BME280;4093;53.470;9.832;2023-02-12T02:33:06;103452.91;;;11.01;93.15
8101;BME280;4093;53.470;9.832;2023-02-12T02:35:40;103436.94;;;10.51;93.83
8101;BME280;4093;53.470;9.832;2023-02-12T02:38:21;103446.03;;;10.36;95.29
8101;BME280;4093;53.470;9.832;2023-02-12T02:40:55;103449.53;;;10.70;94.75
8101;BME280;4093;53.470;9.832;2023-02-12T02:43:29;103450.69;;;10.50;95.31
8101;BME280;4093;53.470;9.832;2023-02-12T02:46:03;103448.16;;;10.51;94.80
8101;BME280;4093;53.470;9.832;2023-02-12T02:48:34;103444.63;;;10.81;93.70
8101;BME280;4093;53.470;9.832;2023-02-12T02:51:07;103454.72;;;10.70;94.51
8101;BME280;4093;53.470;9.832;2023-02-12T02:53:38;103451.56;;;10.82;92.87
8101;BME280;4093;53.470;9.832;2023-02-12T02:56:13;103454.63;;;10.67;94.40
8101;BME280;4093;53.470;9.832;2023-02-12T02:58:46;103451.16;;;10.67;93.86
8101;BME280;4093;53.470;9.832;2023-02-12T03:01:21;103442.09;;;10.84;93.44
8101;BME280;4093;53.470;9.832;2023-02-12T03:03:55;103452.34;;;11.14;92.56
8101;BME280;4093;53.470;9.832;2023-02-12T03:06:31;103441.13;;;10.79;92.98
8101;BME280;4093;53.470;9.832;2023-02-12T03:09:12;103451.56;;;10.82;92.72
8101;BME280;4093;53.470;9.832;2023-02-12T03:11:42;103424.03;;;10.52;93.62
8101;BME280;4093;53.470;9.832;2023-02-12T03:14:14;103454.50;;;10.96;93.50
8101;BME280;4093;53.470;9.832;2023-02-12T03:16:50;103453.63;;;10.30;94.39
8101;BME280;4093;53.470;9.832;2023-02-12T03:19:22;103456.25;;;10.63;94.46
8101;BME280;4093;53.470;9.832;2023-02-12T03:21:56;103465.78;;;10.98;92.69
8101;BME280;4093;53.470;9.832;2023-02-12T03:24:29;103463.41;;;10.74;93.18
8101;BME280;4093;53.470;9.832;2023-02-12T03:27:03;103459.91;;;11.05;91.16
8101;BME280;4093;53.470;9.832;2023-02-12T03:29:32;103460.75;;;11.04;91.34
8101;BME280;4093;53.470;9.832;2023-02-12T03:32:13;103459.41;;;11.21;90.93
8101;BME280;4093;53.470;9.832;2023-02-12T03:34:48;103456.00;;;11.22;90.85
8101;BME280;4093;53.470;9.832;2023-02-12T03:37:20;103454.63;;;11.02;91.05
8101;BME280;4093;53.470;9.832;2023-02-12T03:39:55;103451.88;;;10.94;92.30
8101;BME280;4093;53.470;9.832;2023-02-12T03:42:33;103461.56;;;11.03;91.09
8101;BME280;4093;53.470;9.832;2023-02-12T03:45:08;103460.59;;;10.98;91.63
8101;BME280;4093;53.470;9.832;2023-02-12T03:47:43;103464.22;;;11.06;91.71
8101;BME280;4093;53.470;9.832;2023-02-12T03:50:17;103469.47;;;11.09;90.67
8101;BME280;4093;53.470;9.832;2023-02-12T03:52:48;103477.25;;;11.09;90.86
8101;BME280;4093;53.470;9.832;2023-02-12T03:55:17;103478.06;;;11.06;92.19
8101;BME280;4093;53.470;9.832;2023-02-12T03:57:51;103462.25;;;10.96;91.65
8101;BME280;4093;53.470;9.832;2023-02-12T04:00:22;103478.47;;;11.23;91.53
8101;BME280;4093;53.470;9.832;2023-02-12T04:02:52;103484.34;;;11.16;91.14
8101;BME280;4093;53.470;9.832;2023-02-12T04:05:22;103473.06;;;11.14;90.09
8101;BME280;4093;53.470;9.832;2023-02-12T04:07:51;103479.25;;;11.19;90.34
8101;BME280;4093;53.470;9.832;2023-02-12T04:10:23;103475.72;;;11.16;91.23
8101;BME280;4093;53.470;9.832;2023-02-12T04:12:56;103481.00;;;11.20;91.67
8101;BME280;4093;53.470;9.832;2023-02-12T04:15:45;103477.94;;;11.02;91.87
8101;BME280;4093;53.470;9.832;2023-02-12T04:18:25;103474.66;;;11.09;91.88
8101;BME280;4093;53.470;9.832;2023-02-12T04:21:00;103479.19;;;11.16;91.82
8101;BME280;4093;53.470;9.832;2023-02-12T04:23:47;103482.88;;;11.27;91.17
8101;BME280;4093;53.470;9.832;2023-02-12T04:26:22;103480.94;;;11.19;91.58
8101;BME280;4093;53.470;9.832;2023-02-12T04:28:58;103476.59;;;11.16;90.60
8101;BME280;4093;53.470;9.832;2023-02-12T04:31:35;103486.88;;;11.13;91.31
8101;BME280;4093;53.470;9.832;2023-02-12T04:34:11;103488.38;;;11.05;91.60
8101;BME280;4093;53.470;9.832;2023-02-12T04:36:44;103493.78;;;11.14;92.78
8101;BME280;4093;53.470;9.832;2023-02-12T04:39:16;103493.94;;;11.20;91.63
8101;BME280;4093;53.470;9.832;2023-02-12T04:41:47;103497.31;;;11.18;91.88
8101;BME280;4093;53.470;9.832;2023-02-12T04:44:17;103490.19;;;11.09;91.80
8101;BME280;4093;53.470;9.832;2023-02-12T04:46:45;103501.47;;;11.11;92.11
8101;BME280;4093;53.470;9.832;2023-02-12T04:49:16;103495.38;;;11.09;92.41
8101;BME280;4093;53.470;9.832;2023-02-12T04:51:46;103490.88;;;11.00;91.18
8101;BME280;4093;53.470;9.832;2023-02-12T04:54:16;103490.03;;;11.03;91.32
8101;BME280;4093;53.470;9.832;2023-02-12T04:56:45;103494.97;;;11.27;91.22
8101;BME280;4093;53.470;9.832;2023-02-12T04:59:14;103489.06;;;11.32;90.65
8101;BME280;4093;53.470;9.832;2023-02-12T05:01:42;103494.59;;;11.11;90.94
8101;BME280;4093;53.470;9.832;2023-02-12T05:04:13;103487.03;;;11.19;91.09
8101;BME280;4093;53.470;9.832;2023-02-12T05:06:43;103481.38;;;11.01;90.66
8101;BME280;4093;53.470;9.832;2023-02-12T05:09:15;103489.88;;;10.97;91.59
8101;BME280;4093;53.470;9.832;2023-02-12T05:11:44;103488.13;;;10.94;91.71
8101;BME280;4093;53.470;9.832;2023-02-12T05:14:12;103484.59;;;10.91;92.54
8101;BME280;4093;53.470;9.832;2023-02-12T05:16:42;103495.38;;;11.09;91.22
8101;BME280;4093;53.470;9.832;2023-02-12T05:19:10;103494.00;;;10.88;91.58
8101;BME280;4093;53.470;9.832;2023-02-12T05:21:38;103498.50;;;10.96;91.82
8101;BME280;4093;53.470;9.832;2023-02-12T05:24:08;103500.19;;;10.94;92.21
8101;BME280;4093;53.470;9.832;2023-02-12T05:26:36;103456.53;;;10.74;91.95
8101;BME280;4093;53.470;9.832;2023-02-12T05:29:04;103486.09;;;10.82;92.81
8101;BME280;4093;53.470;9.832;2023-02-12T05:31:32;103499.25;;;10.92;93.08
8101;BME280;4093;53.470;9.832;2023-02-12T05:34:00;103493.84;;;10.82;92.01
8101;BME280;4093;53.470;9.832;2023-02-12T05:36:28;103504.53;;;10.95;92.70
8101;BME280;4093;53.470;9.832;2023-02-12T05:38:57;103490.97;;;11.05;91.81
8101;BME280;4093;53.470;9.832;2023-02-12T05:41:27;103493.94;;;10.85;92.40
8101;BME280;4093;53.470;9.832;2023-02-12T05:44:00;103498.41;;;10.93;92.30
8101;BME280;4093;53.470;9.832;2023-02-12T05:46:28;103503.69;;;10.96;92.74
8101;BME280;4093;53.470;9.832;2023-02-12T05:48:55;103502.25;;;10.74;93.14
8101;BME280;4093;53.470;9.832;2023-02-12T05:51:25;103515.75;;;10.95;92.84
8101;BME280;4093;53.470;9.832;2023-02-12T05:53:57;103518.72;;;11.10;91.59
8101;BME280;4093;53.470;9.832;2023-02-12T05:56:30;103519.03;;;10.89;92.70
8101;BME280;4093;53.470;9.832;2023-02-12T05:59:01;103520.13;;;10.98;92.66
8101;BME280;4093;53.470;9.832;2023-02-12T06:01:30;103517.56;;;10.99;92.29
8101;BME280;4093;53.470;9.832;2023-02-12T06:03:59;103509.53;;;10.88;93.07
8101;BME280;4093;53.470;9.832;2023-02-12T06:06:27;103516.28;;;10.82;92.58
8101;BME280;4093;53.470;9.832;2023-02-12T06:08:57;103524.44;;;10.97;92.36
8101;BME280;4093;53.470;9.832;2023-02-12T06:11:26;103519.59;;;11.11;91.71
8101;BME280;4093;53.470;9.832;2023-02-12T06:13:56;103523.69;;;11.03;92.46
8101;BME280;4093;53.470;9.832;2023-02-12T06:16:26;103515.06;;;11.02;92.78
8101;BME280;4093;53.470;9.832;2023-02-12T06:18:56;103519.28;;;10.99;92.77
8101;BME280;4093;53.470;9.832;2023-02-12T06:21:25;103514.56;;;10.82;93.07
8101;BME280;4093;53.470;9.832;2023-02-12T06:23:54;103529.22;;;10.83;93.59
8101;BME280;4093;53.470;9.832;2023-02-12T06:26:22;103530.31;;;10.92;93.26
8101;BME280;4093;53.470;9.832;2023-02-12T06:28:51;103515.97;;;10.71;93.40
8101;BME280;4093;53.470;9.832;2023-02-12T06:31:25;103525.16;;;10.92;93.47
8101;BME280;4093;53.470;9.832;2023-02-12T06:33:56;103503.19;;;10.77;92.11
8101;BME280;4093;53.470;9.832;2023-02-12T06:36:24;103518.81;;;10.80;93.41
8101;BME280;4093;53.470;9.832;2023-02-12T06:38:52;103518.69;;;10.76;93.65
8101;BME280;4093;53.470;9.832;2023-02-12T06:41:21;103466.16;;;10.47;93.57
8101;BME280;4093;53.470;9.832;2023-02-12T06:43:49;103535.88;;;10.74;94.09
8101;BME280;4093;53.470;9.832;2023-02-12T06:46:17;103537.25;;;10.93;93.17
8101;BME280;4093;53.470;9.832;2023-02-12T06:48:46;103542.66;;;11.02;93.17
8101;BME280;4093;53.470;9.832;2023-02-12T06:51:16;103536.91;;;10.79;93.38
8101;BME280;4093;53.470;9.832;2023-02-12T06:53:44;103555.91;;;10.81;93.37
8101;BME280;4093;53.470;9.832;2023-02-12T06:56:12;103562.47;;;11.00;93.26
8101;BME280;4093;53.470;9.832;2023-02-12T06:58:41;103561.25;;;10.87;93.61
8101;BME280;4093;53.470;9.832;2023-02-12T07:01:11;103568.31;;;10.93;93.93
8101;BME280;4093;53.470;9.832;2023-02-12T07:03:41;103572.16;;;11.07;92.89
8101;BME280;4093;53.470;9.832;2023-02-12T07:06:10;103549.06;;;10.83;93.16
8101;BME280;4093;53.470;9.832;2023-02-12T07:08:38;103573.06;;;11.09;93.01
8101;BME280;4093;53.470;9.832;2023-02-12T07:11:06;103571.84;;;10.96;93.36
8101;BME280;4093;53.470;9.832;2023-02-12T07:13:34;103571.28;;;10.75;94.08
8101;BME280;4093;53.470;9.832;2023-02-12T07:16:03;103588.22;;;10.94;93.88
8101;BME280;4093;53.470;9.832;2023-02-12T07:18:32;103583.16;;;11.00;92.91
8101;BME280;4093;53.470;9.832;2023-02-12T07:21:02;103584.81;;;10.96;93.67
8101;BME280;4093;53.470;9.832;2023-02-12T07:23:32;103588.50;;;11.06;93.78
8101;BME280;4093;53.470;9.832;2023-02-12T07:26:04;103593.94;;;11.15;92.86
8101;BME280;4093;53.470;9.832;2023-02-12T07:28:32;103593.13;;;11.16;92.05
8101;BME280;4093;53.470;9.832;2023-02-12T07:31:06;103596.59;;;11.18;91.50
8101;BME280;4093;53.470;9.832;2023-02-12T07:33:34;103597.53;;;11.20;92.62
8101;BME280;4093;53.470;9.832;2023-02-12T07:36:03;103598.69;;;11.00;93.47
8101;BME280;4093;53.470;9.832;2023-02-12T07:38:35;103594.28;;;10.96;93.34
8101;BME280;4093;53.470;9.832;2023-02-12T07:41:06;103595.63;;;11.13;93.07
8101;BME280;4093;53.470;9.832;2023-02-12T07:43:36;103600.22;;;11.23;92.51
8101;BME280;4093;53.470;9.832;2023-02-12T07:46:07;103593.13;;;10.84;94.91
8101;BME280;4093;53.470;9.832;2023-02-12T07:48:35;103598.88;;;11.06;93.86
8101;BME280;4093;53.470;9.832;2023-02-12T07:51:05;103596.50;;;11.14;93.36
8101;BME280;4093;53.470;9.832;2023-02-12T07:53:34;103603.81;;;11.30;92.99
8101;BME280;4093;53.470;9.832;2023-02-12T07:56:07;103601.25;;;11.30;92.25
8101;BME280;4093;53.470;9.832;2023-02-12T07:58:36;103608.25;;;11.34;93.23
8101;BME280;4093;53.470;9.832;2023-02-12T08:01:12;103603.56;;;11.19;93.37
8101;BME280;4093;53.470;9.832;2023-02-12T08:03:40;103605.91;;;11.10;94.17
8101;BME280;4093;53.470;9.832;2023-02-12T08:06:10;103594.69;;;11.09;94.38
8101;BME280;4093;53.470;9.832;2023-02-12T08:08:42;103603.97;;;11.03;94.31
8101;BME280;4093;53.470;9.832;2023-02-12T08:11:11;103605.31;;;11.22;94.40
8101;BME280;4093;53.470;9.832;2023-02-12T08:13:39;103601.53;;;11.41;93.48
8101;BME280;4093;53.470;9.832;2023-02-12T08:16:09;103609.94;;;11.32;93.53
8101;BME280;4093;53.470;9.832;2023-02-12T08:18:37;103611.94;;;11.44;92.49
8101;BME280;4093;53.470;9.832;2023-02-12T08:21:06;103606.16;;;11.19;93.59
8101;BME280;4093;53.470;9.832;2023-02-12T08:23:35;103611.41;;;11.22;94.01
8101;BME280;4093;53.470;9.832;2023-02-12T08:26:06;103612.16;;;11.18;93.62
8101;BME280;4093;53.470;9.832;2023-02-12T08:28:36;103616.88;;;11.33;94.21
8101;BME280;4093;53.470;9.832;2023-02-12T08:31:09;103626.78;;;11.49;93.63
8101;BME280;4093;53.470;9.832;2023-02-12T08:33:38;103630.22;;;11.48;93.01
8101;BME280;4093;53.470;9.832;2023-02-12T08:36:07;103615.88;;;10.96;94.97
8101;BME280;4093;53.470;9.832;2023-02-12T08:38:37;103627.19;;;11.31;93.81
8101;BME280;4093;53.470;9.832;2023-02-12T08:41:13;103552.53;;;10.83;94.00
8101;BME280;4093;53.470;9.832;2023-02-12T08:43:41;103632.06;;;11.19;93.92
8101;BME280;4093;53.470;9.832;2023-02-12T08:46:11;103636.50;;;11.25;93.62
8101;BME280;4093;53.470;9.832;2023-02-12T08:48:40;103637.88;;;11.12;95.24
8101;BME280;4093;53.470;9.832;2023-02-12T08:51:11;103642.06;;;11.39;93.40
8101;BME280;4093;53.470;9.832;2023-02-12T08:53:41;103623.31;;;11.16;93.60
8101;BME280;4093;53.470;9.832;2023-02-12T08:56:13;103643.72;;;11.37;93.40
8101;BME280;4093;53.470;9.832;2023-02-12T08:58:41;103651.06;;;11.21;94.46
8101;BME280;4093;53.470;9.832;2023-02-12T09:01:10;103655.78;;;11.34;93.82
8101;BME280;4093;53.470;9.832;2023-02-12T09:03:38;103661.72;;;11.65;92.78
8101;BME280;4093;53.470;9.832;2023-02-12T09:06:07;103633.50;;;11.41;92.85
8101;BME280;4093;53.470;9.832;2023-02-12T09:08:35;103654.34;;;11.14;94.44
8101;BME280;4093;53.470;9.832;2023-02-12T09:11:04;103650.34;;;10.94;95.36
8101;BME280;4093;53.470;9.832;2023-02-12T09:13:34;103660.81;;;11.30;94.35
8101;BME280;4093;53.470;9.832;2023-02-12T09:16:03;103609.06;;;11.00;94.11
8101;BME280;4093;53.470;9.832;2023-02-12T09:18:32;103661.03;;;11.38;94.12
8101;BME280;4093;53.470;9.832;2023-02-12T09:21:01;103655.34;;;11.52;93.01
8101;BME280;4093;53.470;9.832;2023-02-12T09:23:31;103650.47;;;11.30;94.65
8101;BME280;4093;53.470;9.832;2023-02-12T09:26:02;103655.25;;;11.48;94.12
8101;BME280;4093;53.470;9.832;2023-02-12T09:28:30;103655.69;;;11.31;93.73
8101;BME280;4093;53.470;9.832;2023-02-12T09:31:03;103644.50;;;11.32;94.54
8101;BME280;4093;53.470;9.832;2023-02-12T09:33:32;103658.53;;;11.41;94.86
8101;BME280;4093;53.470;9.832;2023-02-12T09:36:01;103655.00;;;11.39;94.85
8101;BME280;4093;53.470;9.832;2023-02-12T09:38:29;103669.28;;;11.56;94.20
8101;BME280;4093;53.470;9.832;2023-02-12T09:43:53;103669.47;;;11.64;93.97
8101;BME280;4093;53.470;9.832;2023-02-12T09:46:28;103672.72;;;11.55;94.74
8101;BME280;4093;53.470;9.832;2023-02-12T09:49:06;103678.53;;;11.81;93.64
8101;BME280;4093;53.470;9.832;2023-02-12T09:51:37;103674.47;;;11.89;93.45
8101;BME280;4093;53.470;9.832;2023-02-12T09:54:10;103679.56;;;11.53;94.52
8101;BME280;4093;53.470;9.832;2023-02-12T09:56:42;103676.72;;;11.75;93.04
8101;BME280;4093;53.470;9.832;2023-02-12T09:59:13;103677.06;;;11.24;94.93
8101;BME280;4093;53.470;9.832;2023-02-12T10:01:46;103682.63;;;11.71;93.62
8101;BME280;4093;53.470;9.832;2023-02-12T10:04:14;103689.84;;;11.83;93.40
8101;BME280;4093;53.470;9.832;2023-02-12T10:06:47;103686.25;;;11.78;93.04
8101;BME280;4093;53.470;9.832;2023-02-12T10:09:28;103687.72;;;11.68;93.27
8101;BME280;4093;53.470;9.832;2023-02-12T10:12:03;103699.56;;;11.58;93.85
8101;BME280;4093;53.470;9.832;2023-02-12T10:15:04;103692.03;;;11.66;93.27
8101;BME280;4093;53.470;9.832;2023-02-12T10:17:39;103693.03;;;11.40;94.43
8101;BME280;4093;53.470;9.832;2023-02-12T10:23:32;103696.97;;;11.58;92.62
8101;BME280;4093;53.470;9.832;2023-02-12T10:26:07;103700.28;;;11.53;93.78
8101;BME280;4093;53.470;9.832;2023-02-12T10:28:40;103705.31;;;11.47;94.32
8101;BME280;4093;53.470;9.832;2023-02-12T10:31:27;103695.63;;;11.40;94.36
8101;BME280;4093;53.470;9.832;2023-02-12T10:33:57;103695.25;;;11.59;93.98
8101;BME280;4093;53.470;9.832;2023-02-12T10:36:32;103693.84;;;11.70;93.90
8101;BME280;4093;53.470;9.832;2023-02-12T10:39:11;103698.03;;;11.65;93.86
8101;BME280;4093;53.470;9.832;2023-02-12T10:41:43;103686.91;;;11.69;94.68
8101;BME280;4093;53.470;9.832;2023-02-12T10:44:13;103678.03;;;11.60;94.57
8101;BME280;4093;53.470;9.832;2023-02-12T10:46:41;103681.97;;;11.47;94.42
8101;BME280;4093;53.470;9.832;2023-02-12T10:49:13;103665.38;;;11.39;94.12
8101;BME280;4093;53.470;9.832;2023-02-12T10:51:52;103692.56;;;11.54;95.29
8101;BME280;4093;53.470;9.832;2023-02-12T10:54:34;103696.28;;;11.64;94.83
8101;BME280;4093;53.470;9.832;2023-02-12T10:57:21;103694.28;;;11.86;93.83
8101;BME280;4093;53.470;9.832;2023-02-12T10:59:51;103696.41;;;12.02;93.29
8101;BME280;4093;53.470;9.832;2023-02-12T11:02:25;103678.44;;;11.76;94.32
8101;BME280;4093;53.470;9.832;2023-02-12T11:04:55;103688.75;;;12.08;93.00
8101;BME280;4093;53.470;9.832;2023-02-12T11:07:26;103682.88;;;12.15;92.14
8101;BME280;4093;53.470;9.832;2023-02-12T11:09:55;103683.09;;;12.24;92.39
8101;BME280;4093;53.470;9.832;2023-02-12T11:12:31;103679.84;;;11.97;93.20
8101;BME280;4093;53.470;9.832;2023-02-12T11:15:06;103674.66;;;11.97;92.33
8101;BME280;4093;53.470;9.832;2023-02-12T11:17:43;103623.56;;;11.58;94.20
8101;BME280;4093;53.470;9.832;2023-02-12T11:20:22;103672.03;;;11.95;94.40
8101;BME280;4093;53.470;9.832;2023-02-12T11:22:53;103673.44;;;12.17;92.88
8101;BME280;4093;53.470;9.832;2023-02-12T11:25:22;103659.25;;;12.03;93.05
8101;BME280;4093;53.470;9.832;2023-02-12T11:28:00;103664.25;;;11.62;95.28
8101;BME280;4093;53.470;9.832;2023-02-12T11:30:29;103662.38;;;10.93;97.80
8101;BME280;4093;53.470;9.832;2023-02-12T11:33:21;103652.69;;;11.49;96.18
8101;BME280;4093;53.470;9.832;2023-02-12T11:35:53;103635.25;;;11.77;94.16
8101;BME280;4093;53.470;9.832;2023-02-12T11:38:25;103655.13;;;11.76;94.20
8101;BME280;4093;53.470;9.832;2023-02-12T11:40:57;103660.06;;;12.00;93.85
8101;BME280;4093;53.470;9.832;2023-02-12T11:43:27;103659.28;;;12.04;94.10
8101;BME280;4093;53.470;9.832;2023-02-12T11:45:58;103649.16;;;11.46;96.46
8101;BME280;4093;53.470;9.832;2023-02-12T11:48:30;103662.38;;;11.88;95.88
8101;BME280;4093;53.470;9.832;2023-02-12T11:51:03;103655.06;;;12.08;94.79
8101;BME280;4093;53.470;9.832;2023-02-12T11:53:37;103652.03;;;12.27;94.18
8101;BME280;4093;53.470;9.832;2023-02-12T11:56:08;103650.28;;;11.90;93.47
8101;BME280;4093;53.470;9.832;2023-02-12T11:58:37;103648.78;;;12.00;94.11
8101;BME280;4093;53.470;9.832;2023-02-12T12:01:13;103649.56;;;12.32;92.93
8101;BME280;4093;53.470;9.832;2023-02-12T12:03:50;103566.19;;;11.80;93.66
8101;BME280;4093;53.470;9.832;2023-02-12T12:06:30;103655.34;;;12.22;93.81
8101;BME280;4093;53.470;9.832;2023-02-12T12:09:04;103651.09;;;12.24;93.62
8101;BME280;4093;53.470;9.832;2023-02-12T12:11:39;103647.25;;;12.46;92.35
8101;BME280;4093;53.470;9.832;2023-02-12T12:14:14;103646.03;;;12.30;92.86
8101;BME280;4093;53.470;9.832;2023-02-12T12:16:49;103616.63;;;12.30;92.26
8101;BME280;4093;53.470;9.832;2023-02-12T12:19:41;103639.00;;;12.65;91.82
8101;BME280;4093;53.470;9.832;2023-02-12T12:22:30;103639.59;;;12.52;92.04
8101;BME280;4093;53.470;9.832;2023-02-12T12:25:09;103636.66;;;12.37;92.89
8101;BME280;4093;53.470;9.832;2023-02-12T12:27:44;103637.00;;;12.52;91.59
8101;BME280;4093;53.470;9.832;2023-02-12T12:33:40;103623.56;;;12.31;92.65
8101;BME280;4093;53.470;9.832;2023-02-12T12:39:15;103622.75;;;12.33;92.48
8101;BME280;4093;53.470;9.832;2023-02-12T12:45:03;103617.34;;;12.22;92.98
8101;BME280;4093;53.470;9.832;2023-02-12T12:47:43;103618.03;;;12.55;92.34
8101;BME280;4093;53.470;9.832;2023-02-12T12:50:29;103588.56;;;12.51;91.45
8101;BME280;4093;53.470;9.832;2023-02-12T12:53:15;103611.22;;;12.60;92.07
8101;BME280;4093;53.470;9.832;2023-02-12T12:56:02;103608.66;;;12.61;92.85
8101;BME280;4093;53.470;9.832;2023-02-12T12:58:43;103606.25;;;12.72;92.23
8101;BME280;4093;53.470;9.832;2023-02-12T13:01:28;103596.84;;;12.76;92.17
8101;BME280;4093;53.470;9.832;2023-02-12T13:04:20;103599.75;;;12.94;91.31
8101;BME280;4093;53.470;9.832;2023-02-12T13:07:10;103594.44;;;12.88;91.04
8101;BME280;4093;53.470;9.832;2023-02-12T13:09:47;103591.66;;;12.76;91.50
8101;BME280;4093;53.470;9.832;2023-02-12T13:12:46;103587.91;;;12.63;92.25
8101;BME280;4093;53.470;9.832;2023-02-12T13:15:26;103595.06;;;12.74;91.61
8101;BME280;4093;53.470;9.832;2023-02-12T13:18:04;103586.31;;;12.27;93.41
8101;BME280;4093;53.470;9.832;2023-02-12T13:20:42;103585.47;;;12.70;91.90
8101;BME280;4093;53.470;9.832;2023-02-12T13:23:14;103598.78;;;12.87;90.98
8101;BME280;4093;53.470;9.832;2023-02-12T13:25:49;103583.53;;;12.60;91.36
8101;BME280;4093;53.470;9.832;2023-02-12T13:28:28;103588.69;;;12.57;92.24
8101;BME280;4093;53.470;9.832;2023-02-12T13:30:58;103591.28;;;12.18;92.80
8101;BME280;4093;53.470;9.832;2023-02-12T13:33:38;103589.75;;;12.27;93.13
8101;BME280;4093;53.470;9.832;2023-02-12T13:36:10;103600.47;;;12.41;93.59
8101;BME280;4093;53.470;9.832;2023-02-12T13:38:46;103589.31;;;12.47;93.00
8101;BME280;4093;53.470;9.832;2023-02-12T13:41:16;103596.66;;;12.66;91.93
8101;BME280;4093;53.470;9.832;2023-02-12T13:43:59;103578.00;;;12.43;91.67
8101;BME280;4093;53.470;9.832;2023-02-12T13:46:33;103541.72;;;12.06;93.13
8101;BME280;4093;53.470;9.832;2023-02-12T13:49:11;103588.88;;;12.25;93.32
8101;BME280;4093;53.470;9.832;2023-02-12T13:51:42;103587.88;;;12.60;92.28
8101;BME280;4093;53.470;9.832;2023-02-12T13:54:22;103583.28;;;12.48;92.28